sensor_id;sensor_type;location;lat;lon;timestamp;pressure;altitude;pressure_sealevel;temperature;humidity
27705;BME280;15109;50.992;6.918;2022-12-08T00:00:36;100562.06;;;5.31;100.00
27705;BME280;15109;50.992;6.918;2022-12-08T00:04:02;100558.22;;;5.33;100.00
27705;BME280;15109;50.992;6.918;2022-12-08T00:07:24;100560.69;;;5.27;100.00
27705;BME280;15109;50.992;6.918;2022-12-08T00:11:12;100557.34;;;5.33;100.00
27705;BME280;15109;50.992;6.918;2022-12-08T00:14:35;100548.38;;;5.32;100.00
27705;BME280;15109;50.992;6.918;2022-12-08T00:17:57;100549.53;;;5.30;100.00
27705;BME280;15109;50.992;6.918;2022-12-08T00:21:18;100537.38;;;5.34;100.00
27705;BME280;15109;50.992;6.918;2022-12-08T00:24:39;100533.50;;;5.36;100.00
27705;BME280;15109;50.992;6.918;2022-12-08T00:28:01;100530.63;;;5.38;100.00
27705;BME280;15109;50.992;6.918;2022-12-08T00:31:24;100526.91;;;5.39;100.00
27705;BME280;15109;50.992;6.918;2022-12-08T00:34:48;100530.44;;;5.39;100.00
27705;BME280;15109;50.992;6.918;2022-12-08T00:38:09;100521.03;;;5.43;100.00
27705;BME280;15109;50.992;6.918;2022-12-08T00:41:33;100519.84;;;5.46;100.00
27705;BME280;15109;50.992;6.918;2022-12-08T00:45:13;100519.47;;;5.41;100.00
27705;BME280;15109;50.992;6.918;2022-12-08T00:48:34;100517.59;;;5.41;100.00
27705;BME280;15109;50.992;6.918;2022-12-08T00:51:58;100516.44;;;5.44;100.00
27705;BME280;15109;50.992;6.918;2022-12-08T00:55:19;100509.47;;;5.41;100.00
27705;BME280;15109;50.992;6.918;2022-12-08T00:58:40;100507.13;;;5.46;100.00
27705;BME280;15109;50.992;6.918;2022-12-08T01:02:01;100496.25;;;5.38;100.00
27705;BME280;15109;50.992;6.918;2022-12-08T01:05:22;100498.25;;;5.36;100.00
27705;BME280;15109;50.992;6.918;2022-12-08T01:08:44;100495.16;;;5.31;100.00
27705;BME280;15109;50.992;6.918;2022-12-08T01:12:05;100494.69;;;5.36;100.00
27705;BME280;15109;50.992;6.918;2022-12-08T01:15:27;100496.53;;;5.35;100.00
27705;BME280;15109;50.992;6.918;2022-12-08T01:18:48;100492.16;;;5.34;100.00
27705;BME280;15109;50.992;6.918;2022-12-08T01:22:12;100500.44;;;5.33;100.00
27705;BME280;15109;50.992;6.918;2022-12-08T01:25:33;100508.03;;;5.29;100.00
27705;BME280;15109;50.992;6.918;2022-12-08T01:28:55;100503.63;;;5.28;100.00
27705;BME280;15109;50.992;6.918;2022-12-08T01:32:16;100498.66;;;5.24;100.00
27705;BME280;15109;50.992;6.918;2022-12-08T01:35:37;100502.75;;;5.28;100.00
27705;BME280;15109;50.992;6.918;2022-12-08T01:39:00;100502.63;;;5.29;100.00
27705;BME280;15109;50.992;6.918;2022-12-08T01:42:24;100496.47;;;5.27;100.00
27705;BME280;15109;50.992;6.918;2022-12-08T01:45:46;100494.94;;;5.25;100.00
27705;BME280;15109;50.992;6.918;2022-12-08T01:49:29;100500.44;;;5.33;100.00
27705;BME280;15109;50.992;6.918;2022-12-08T01:52:51;100498.72;;;5.32;100.00
27705;BME280;15109;50.992;6.918;2022-12-08T01:56:39;100491.59;;;5.31;100.00
27705;BME280;15109;50.992;6.918;2022-12-08T02:00:09;100495.63;;;5.27;100.00
27705;BME280;15109;50.992;6.918;2022-12-08T02:03:41;100489.19;;;5.28;100.00
27705;BME280;15109;50.992;6.918;2022-12-08T02:07:07;100487.88;;;5.32;100.00
27705;BME280;15109;50.992;6.918;2022-12-08T02:10:34;100476.88;;;5.33;100.00
27705;BME280;15109;50.992;6.918;2022-12-08T02:13:57;100476.03;;;5.33;100.00
27705;BME280;15109;50.992;6.918;2022-12-08T02:28:54;100477.47;;;5.45;100.00
27705;BME280;15109;50.992;6.918;2022-12-08T02:32:44;100461.84;;;5.39;100.00
27705;BME280;15109;50.992;6.918;2022-12-08T02:36:14;100456.94;;;5.42;100.00
27705;BME280;15109;50.992;6.918;2022-12-08T02:40:16;100455.94;;;5.43;100.00
27705;BME280;15109;50.992;6.918;2022-12-08T02:43:46;100449.50;;;5.44;100.00
27705;BME280;15109;50.992;6.918;2022-12-08T02:47:18;100446.78;;;5.44;100.00
27705;BME280;15109;50.992;6.918;2022-12-08T02:50:43;100448.28;;;5.39;100.00
27705;BME280;15109;50.992;6.918;2022-12-08T02:54:04;100439.13;;;5.40;100.00
27705;BME280;15109;50.992;6.918;2022-12-08T03:01:11;100428.84;;;5.43;100.00
27705;BME280;15109;50.992;6.918;2022-12-08T03:05:04;100424.09;;;5.45;100.00
27705;BME280;15109;50.992;6.918;2022-12-08T03:12:23;100408.66;;;5.46;100.00
27705;BME280;15109;50.992;6.918;2022-12-08T03:15:47;100408.66;;;5.46;100.00
27705;BME280;15109;50.992;6.918;2022-12-08T03:19:20;100399.69;;;5.45;100.00
27705;BME280;15109;50.992;6.918;2022-12-08T03:22:46;100391.41;;;5.47;100.00
27705;BME280;15109;50.992;6.918;2022-12-08T03:26:17;100386.28;;;5.44;100.00
27705;BME280;15109;50.992;6.918;2022-12-08T03:29:39;100383.41;;;5.45;100.00
27705;BME280;15109;50.992;6.918;2022-12-08T03:33:08;100382.75;;;5.43;100.00
27705;BME280;15109;50.992;6.918;2022-12-08T03:36:34;100380.34;;;5.40;100.00
27705;BME280;15109;50.992;6.918;2022-12-08T03:39:56;100376.78;;;5.40;100.00
27705;BME280;15109;50.992;6.918;2022-12-08T03:43:17;100381.91;;;5.43;100.00
27705;BME280;15109;50.992;6.918;2022-12-08T03:46:40;100382.03;;;5.41;100.00
27705;BME280;15109;50.992;6.918;2022-12-08T03:50:01;100382.91;;;5.42;100.00
27705;BME280;15109;50.992;6.918;2022-12-08T03:53:22;100376.13;;;5.46;100.00
27705;BME280;15109;50.992;6.918;2022-12-08T03:56:44;100371.06;;;5.43;100.00
27705;BME280;15109;50.992;6.918;2022-12-08T04:00:10;100359.72;;;5.47;100.00
27705;BME280;15109;50.992;6.918;2022-12-08T04:03:33;100364.28;;;5.47;100.00
27705;BME280;15109;50.992;6.918;2022-12-08T04:06:54;100357.53;;;5.51;100.00
27705;BME280;15109;50.992;6.918;2022-12-08T04:10:15;100358.19;;;5.53;100.00
27705;BME280;15109;50.992;6.918;2022-12-08T04:13:38;100352.47;;;5.56;100.00
27705;BME280;15109;50.992;6.918;2022-12-08T04:16:59;100353.47;;;5.55;100.00
27705;BME280;15109;50.992;6.918;2022-12-08T04:20:20;100351.09;;;5.52;100.00
27705;BME280;15109;50.992;6.918;2022-12-08T04:23:42;100341.56;;;5.48;100.00
27705;BME280;15109;50.992;6.918;2022-12-08T04:27:03;100340.03;;;5.45;100.00
27705;BME280;15109;50.992;6.918;2022-12-08T04:30:24;100342.91;;;5.44;100.00
27705;BME280;15109;50.992;6.918;2022-12-08T04:33:45;100337.00;;;5.48;100.00
27705;BME280;15109;50.992;6.918;2022-12-08T04:37:06;100335.97;;;5.41;100.00
27705;BME280;15109;50.992;6.918;2022-12-08T04:40:27;100328.81;;;5.40;100.00
27705;BME280;15109;50.992;6.918;2022-12-08T04:43:48;100328.47;;;5.35;100.00
27705;BME280;15109;50.992;6.918;2022-12-08T04:47:09;100323.22;;;5.34;100.00
27705;BME280;15109;50.992;6.918;2022-12-08T04:50:30;100324.22;;;5.33;100.00
27705;BME280;15109;50.992;6.918;2022-12-08T04:53:51;100318.97;;;5.31;100.00
27705;BME280;15109;50.992;6.918;2022-12-08T04:57:13;100318.81;;;5.33;100.00
27705;BME280;15109;50.992;6.918;2022-12-08T05:00:34;100315.41;;;5.31;100.00
27705;BME280;15109;50.992;6.918;2022-12-08T05:03:55;100312.88;;;5.29;100.00
27705;BME280;15109;50.992;6.918;2022-12-08T05:07:16;100319.13;;;5.30;100.00
27705;BME280;15109;50.992;6.918;2022-12-08T05:10:37;100313.72;;;5.30;100.00
27705;BME280;15109;50.992;6.918;2022-12-08T05:13:59;100315.06;;;5.26;100.00
27705;BME280;15109;50.992;6.918;2022-12-08T05:17:20;100312.88;;;5.29;100.00
27705;BME280;15109;50.992;6.918;2022-12-08T05:20:41;100315.41;;;5.31;100.00
27705;BME280;15109;50.992;6.918;2022-12-08T05:24:02;100301.84;;;5.31;100.00
27705;BME280;15109;50.992;6.918;2022-12-08T05:27:23;100307.97;;;5.33;100.00
27705;BME280;15109;50.992;6.918;2022-12-08T05:30:44;100306.44;;;5.30;100.00
27705;BME280;15109;50.992;6.918;2022-12-08T05:34:05;100308.81;;;5.33;100.00
27705;BME280;15109;50.992;6.918;2022-12-08T05:37:26;100301.69;;;5.32;100.00
27705;BME280;15109;50.992;6.918;2022-12-08T05:40:47;100294.06;;;5.36;100.00
27705;BME280;15109;50.992;6.918;2022-12-08T05:44:08;100292.41;;;5.35;100.00
27705;BME280;15109;50.992;6.918;2022-12-08T05:47:29;100280.16;;;5.31;100.00
27705;BME280;15109;50.992;6.918;2022-12-08T05:50:51;100296.59;;;5.29;100.00
27705;BME280;15109;50.992;6.918;2022-12-08T05:54:12;100293.03;;;5.29;100.00
27705;BME280;15109;50.992;6.918;2022-12-08T05:57:33;100285.06;;;5.27;100.00
27705;BME280;15109;50.992;6.918;2022-12-08T06:00:55;100281.72;;;5.33;100.00
27705;BME280;15109;50.992;6.918;2022-12-08T06:04:16;100284.56;;;5.32;100.00
27705;BME280;15109;50.992;6.918;2022-12-08T06:07:37;100285.56;;;5.31;100.00
27705;BME280;15109;50.992;6.918;2022-12-08T06:10:58;100273.56;;;5.33;100.00
27705;BME280;15109;50.992;6.918;2022-12-08T06:14:19;100275.28;;;5.34;100.00
27705;BME280;15109;50.992;6.918;2022-12-08T06:17:40;100286.13;;;5.34;100.00
27705;BME280;15109;50.992;6.918;2022-12-08T06:21:06;100274.44;;;5.34;100.00
27705;BME280;15109;50.992;6.918;2022-12-08T06:24:28;100276.94;;;5.35;100.00
27705;BME280;15109;50.992;6.918;2022-12-08T06:27:49;100286.97;;;5.35;100.00
27705;BME280;15109;50.992;6.918;2022-12-08T06:31:23;100281.00;;;5.31;100.00
27705;BME280;15109;50.992;6.918;2022-12-08T06:34:45;100279.00;;;5.33;100.00
27705;BME280;15109;50.992;6.918;2022-12-08T06:38:06;100289.13;;;5.31;100.00
27705;BME280;15109;50.992;6.918;2022-12-08T06:41:27;100284.22;;;5.27;100.00
27705;BME280;15109;50.992;6.918;2022-12-08T06:44:49;100281.50;;;5.27;100.00
27705;BME280;15109;50.992;6.918;2022-12-08T06:48:10;100274.03;;;5.21;100.00
27705;BME280;15109;50.992;6.918;2022-12-08T06:51:31;100286.25;;;5.25;100.00
27705;BME280;15109;50.992;6.918;2022-12-08T06:54:52;100285.41;;;5.24;100.00
27705;BME280;15109;50.992;6.918;2022-12-08T06:58:13;100280.13;;;5.23;100.00
27705;BME280;15109;50.992;6.918;2022-12-08T07:01:34;100282.16;;;5.21;100.00
27705;BME280;15109;50.992;6.918;2022-12-08T07:04:55;100294.38;;;5.25;100.00
27705;BME280;15109;50.992;6.918;2022-12-08T07:08:19;100280.97;;;5.23;100.00
27705;BME280;15109;50.992;6.918;2022-12-08T07:11:40;100293.00;;;5.21;100.00
27705;BME280;15109;50.992;6.918;2022-12-08T07:15:02;100298.91;;;5.16;100.00
27705;BME280;15109;50.992;6.918;2022-12-08T07:18:23;100299.44;;;5.20;100.00
27705;BME280;15109;50.992;6.918;2022-12-08T07:21:44;100300.78;;;5.16;100.00
27705;BME280;15109;50.992;6.918;2022-12-08T07:25:05;100310.38;;;5.10;100.00
27705;BME280;15109;50.992;6.918;2022-12-08T07:28:29;100309.06;;;5.14;100.00
27705;BME280;15109;50.992;6.918;2022-12-08T07:31:50;100303.81;;;5.13;100.00
27705;BME280;15109;50.992;6.918;2022-12-08T07:35:12;100303.13;;;5.11;100.00
27705;BME280;15109;50.992;6.918;2022-12-08T07:38:33;100305.44;;;5.06;100.00
27705;BME280;15109;50.992;6.918;2022-12-08T07:41:54;100299.38;;;5.03;100.00
27705;BME280;15109;50.992;6.918;2022-12-08T07:45:18;100302.94;;;5.04;100.00
27705;BME280;15109;50.992;6.918;2022-12-08T07:48:39;100299.66;;;5.00;100.00
27705;BME280;15109;50.992;6.918;2022-12-08T07:52:00;100299.00;;;4.98;100.00
27705;BME280;15109;50.992;6.918;2022-12-08T07:55:21;100303.72;;;4.96;100.00
27705;BME280;15109;50.992;6.918;2022-12-08T07:58:43;100306.28;;;4.98;100.00
27705;BME280;15109;50.992;6.918;2022-12-08T08:02:14;100307.97;;;4.99;100.00
27705;BME280;15109;50.992;6.918;2022-12-08T08:05:36;100301.19;;;4.95;100.00
27705;BME280;15109;50.992;6.918;2022-12-08T08:08:59;100305.53;;;4.88;100.00
27705;BME280;15109;50.992;6.918;2022-12-08T08:12:23;100305.69;;;4.86;100.00
27705;BME280;15109;50.992;6.918;2022-12-08T08:15:45;100309.94;;;4.89;100.00
27705;BME280;15109;50.992;6.918;2022-12-08T08:19:06;100304.00;;;4.85;100.00
27705;BME280;15109;50.992;6.918;2022-12-08T08:22:27;100310.75;;;4.81;100.00
27705;BME280;15109;50.992;6.918;2022-12-08T08:25:48;100305.84;;;4.85;100.00
27705;BME280;15109;50.992;6.918;2022-12-08T08:29:09;100303.28;;;4.83;100.00
27705;BME280;15109;50.992;6.918;2022-12-08T08:32:34;100309.78;;;4.90;100.00
27705;BME280;15109;50.992;6.918;2022-12-08T08:35:55;100306.22;;;4.90;100.00
27705;BME280;15109;50.992;6.918;2022-12-08T08:39:19;100308.47;;;4.94;100.00
27705;BME280;15109;50.992;6.918;2022-12-08T08:42:40;100302.56;;;4.99;100.00
27705;BME280;15109;50.992;6.918;2022-12-08T08:46:03;100306.13;;;4.99;100.00
27705;BME280;15109;50.992;6.918;2022-12-08T08:49:24;100307.97;;;4.99;100.00
27705;BME280;15109;50.992;6.918;2022-12-08T08:52:47;100305.94;;;5.01;100.00
27705;BME280;15109;50.992;6.918;2022-12-08T08:56:14;100307.66;;;5.02;100.00
27705;BME280;15109;50.992;6.918;2022-12-08T08:59:35;100306.16;;;5.08;100.00
27705;BME280;15109;50.992;6.918;2022-12-08T09:02:56;100303.78;;;5.05;100.00
27705;BME280;15109;50.992;6.918;2022-12-08T09:06:18;100307.31;;;5.05;100.00
27705;BME280;15109;50.992;6.918;2022-12-08T09:09:39;100298.38;;;5.05;100.00
27705;BME280;15109;50.992;6.918;2022-12-08T09:13:00;100311.72;;;5.06;100.00
27705;BME280;15109;50.992;6.918;2022-12-08T09:16:21;100307.16;;;5.07;100.00
27705;BME280;15109;50.992;6.918;2022-12-08T09:19:43;100308.53;;;5.11;100.00
27705;BME280;15109;50.992;6.918;2022-12-08T09:23:04;100310.72;;;5.07;100.00
27705;BME280;15109;50.992;6.918;2022-12-08T09:26:26;100310.72;;;5.07;100.00
27705;BME280;15109;50.992;6.918;2022-12-08T09:29:48;100304.41;;;4.98;100.00
27705;BME280;15109;50.992;6.918;2022-12-08T09:33:12;100302.94;;;5.04;100.00
27705;BME280;15109;50.992;6.918;2022-12-08T09:36:33;100299.41;;;5.12;100.00
27705;BME280;15109;50.992;6.918;2022-12-08T09:39:54;100305.66;;;5.12;100.00
27705;BME280;15109;50.992;6.918;2022-12-08T09:47:41;100301.28;;;5.19;100.00
27705;BME280;15109;50.992;6.918;2022-12-08T09:51:04;100288.59;;;5.20;100.00
27705;BME280;15109;50.992;6.918;2022-12-08T09:54:33;100299.28;;;5.21;100.00
27705;BME280;15109;50.992;6.918;2022-12-08T09:58:00;100293.53;;;5.24;100.00
27705;BME280;15109;50.992;6.918;2022-12-08T10:01:27;100288.63;;;5.28;100.00
27705;BME280;15109;50.992;6.918;2022-12-08T10:04:57;100295.53;;;5.22;100.00
27705;BME280;15109;50.992;6.918;2022-12-08T10:08:20;100293.34;;;5.18;100.00
27705;BME280;15109;50.992;6.918;2022-12-08T10:11:50;100291.94;;;5.14;100.00
27705;BME280;15109;50.992;6.918;2022-12-08T10:19:22;100287.94;;;5.18;100.00
27705;BME280;15109;50.992;6.918;2022-12-08T10:22:51;100284.22;;;5.27;100.00
27705;BME280;15109;50.992;6.918;2022-12-08T10:26:19;100282.16;;;5.21;100.00
27705;BME280;15109;50.992;6.918;2022-12-08T10:29:44;100280.31;;;5.21;100.00
27705;BME280;15109;50.992;6.918;2022-12-08T10:33:13;100269.47;;;5.21;100.00
27705;BME280;15109;50.992;6.918;2022-12-08T10:36:52;100263.38;;;5.27;100.00
27705;BME280;15109;50.992;6.918;2022-12-08T10:40:16;100256.63;;;5.31;100.00
27705;BME280;15109;50.992;6.918;2022-12-08T10:43:54;100259.34;;;5.39;100.00
27705;BME280;15109;50.992;6.918;2022-12-08T10:47:20;100268.03;;;5.43;100.00
27705;BME280;15109;50.992;6.918;2022-12-08T10:54:35;100251.19;;;5.31;100.00
27705;BME280;15109;50.992;6.918;2022-12-08T10:57:58;100251.28;;;5.14;100.00
27705;BME280;15109;50.992;6.918;2022-12-08T11:01:21;100249.63;;;5.13;100.00
27705;BME280;15109;50.992;6.918;2022-12-08T11:04:44;100239.16;;;5.18;100.00
27705;BME280;15109;50.992;6.918;2022-12-08T11:08:07;100235.59;;;5.17;100.00
27705;BME280;15109;50.992;6.918;2022-12-08T11:15:16;100237.34;;;5.34;100.00
27705;BME280;15109;50.992;6.918;2022-12-08T11:18:40;100227.00;;;5.38;100.00
27705;BME280;15109;50.992;6.918;2022-12-08T11:22:41;100230.38;;;5.40;100.00
27705;BME280;15109;50.992;6.918;2022-12-08T11:26:05;100227.50;;;5.41;100.00
27705;BME280;15109;50.992;6.918;2022-12-08T11:29:33;100222.94;;;5.34;100.00
27705;BME280;15109;50.992;6.918;2022-12-08T11:33:04;100213.97;;;5.41;100.00
27705;BME280;15109;50.992;6.918;2022-12-08T11:36:34;100223.09;;;5.48;100.00
27705;BME280;15109;50.992;6.918;2022-12-08T11:40:03;100214.81;;;5.50;100.00
27705;BME280;15109;50.992;6.918;2022-12-08T11:50:56;100206.03;;;5.64;100.00
27705;BME280;15109;50.992;6.918;2022-12-08T11:54:25;100201.28;;;5.66;100.00
27705;BME280;15109;50.992;6.918;2022-12-08T11:57:49;100194.50;;;5.78;100.00
27705;BME280;15109;50.992;6.918;2022-12-08T12:01:21;100200.78;;;5.79;100.00
27705;BME280;15109;50.992;6.918;2022-12-08T12:19:45;100181.28;;;5.83;100.00
27705;BME280;15109;50.992;6.918;2022-12-08T12:30:22;100181.81;;;5.87;100.00
27705;BME280;15109;50.992;6.918;2022-12-08T12:33:45;100178.09;;;5.96;100.00
27705;BME280;15109;50.992;6.918;2022-12-08T12:37:16;100179.78;;;5.97;100.00
27705;BME280;15109;50.992;6.918;2022-12-08T12:40:40;100178.44;;;6.01;100.00
27705;BME280;15109;50.992;6.918;2022-12-08T12:48:13;100175.91;;;6.00;100.00
27705;BME280;15109;50.992;6.918;2022-12-08T12:51:46;100172.00;;;6.02;100.00
27705;BME280;15109;50.992;6.918;2022-12-08T12:55:21;100169.97;;;6.12;100.00
27705;BME280;15109;50.992;6.918;2022-12-08T12:58:42;100161.81;;;6.12;100.00
27705;BME280;15109;50.992;6.918;2022-12-08T13:05:51;100170.78;;;6.13;100.00
27705;BME280;15109;50.992;6.918;2022-12-08T13:09:32;100173.34;;;6.06;100.00
27705;BME280;15109;50.992;6.918;2022-12-08T13:16:41;100165.19;;;6.06;100.00
27705;BME280;15109;50.992;6.918;2022-12-08T13:20:04;100173.34;;;6.06;100.00
27705;BME280;15109;50.992;6.918;2022-12-08T13:30:40;100154.69;;;6.03;100.00
27705;BME280;15109;50.992;6.918;2022-12-08T13:37:50;100157.56;;;6.02;100.00
27705;BME280;15109;50.992;6.918;2022-12-08T13:41:16;100148.78;;;6.00;100.00
27705;BME280;15109;50.992;6.918;2022-12-08T13:48:50;100158.94;;;5.98;100.00
27705;BME280;15109;50.992;6.918;2022-12-08T13:52:44;100154.00;;;6.01;100.00
27705;BME280;15109;50.992;6.918;2022-12-08T13:56:09;100147.56;;;6.02;100.00
27705;BME280;15109;50.992;6.918;2022-12-08T13:59:35;100150.28;;;6.02;100.00
27705;BME280;15109;50.992;6.918;2022-12-08T14:02:58;100147.22;;;6.05;100.00
27705;BME280;15109;50.992;6.918;2022-12-08T14:06:54;100155.03;;;6.00;100.00
27705;BME280;15109;50.992;6.918;2022-12-08T14:10:26;100154.34;;;5.98;100.00
27705;BME280;15109;50.992;6.918;2022-12-08T14:13:48;100156.72;;;5.93;100.00
27705;BME280;15109;50.992;6.918;2022-12-08T14:17:15;100150.28;;;5.86;100.00
27705;BME280;15109;50.992;6.918;2022-12-08T14:20:37;100161.50;;;5.91;100.00
27705;BME280;15109;50.992;6.918;2022-12-08T14:24:01;100164.53;;;5.88;100.00
27705;BME280;15109;50.992;6.918;2022-12-08T14:27:25;100152.63;;;5.81;100.00
27705;BME280;15109;50.992;6.918;2022-12-08T14:30:47;100153.00;;;5.78;100.00
27705;BME280;15109;50.992;6.918;2022-12-08T14:34:17;100152.63;;;5.81;100.00
27705;BME280;15109;50.992;6.918;2022-12-08T14:37:43;100157.22;;;5.80;100.00
27705;BME280;15109;50.992;6.918;2022-12-08T14:41:08;100157.88;;;5.74;100.00
27705;BME280;15109;50.992;6.918;2022-12-08T14:44:34;100164.34;;;5.73;100.00
27705;BME280;15109;50.992;6.918;2022-12-08T14:51:44;100159.44;;;5.69;100.00
27705;BME280;15109;50.992;6.918;2022-12-08T14:55:06;100161.59;;;5.65;100.00
27705;BME280;15109;50.992;6.918;2022-12-08T14:58:28;100161.78;;;5.64;100.00
27705;BME280;15109;50.992;6.918;2022-12-08T15:01:52;100157.22;;;5.64;100.00
27705;BME280;15109;50.992;6.918;2022-12-08T15:05:18;100153.16;;;5.60;100.00
27705;BME280;15109;50.992;6.918;2022-12-08T15:08:57;100155.34;;;5.57;100.00
27705;BME280;15109;50.992;6.918;2022-12-08T15:12:22;100162.16;;;5.61;100.00
27705;BME280;15109;50.992;6.918;2022-12-08T15:15:50;100162.28;;;5.51;100.00
27705;BME280;15109;50.992;6.918;2022-12-08T15:22:46;100156.69;;;5.44;100.00
27705;BME280;15109;50.992;6.918;2022-12-08T15:26:07;100159.88;;;5.40;100.00
27705;BME280;15109;50.992;6.918;2022-12-08T15:29:29;100162.59;;;5.40;100.00
27705;BME280;15109;50.992;6.918;2022-12-08T15:32:51;100165.81;;;5.35;100.00
27705;BME280;15109;50.992;6.918;2022-12-08T15:36:13;100164.63;;;5.30;100.00
27705;BME280;15109;50.992;6.918;2022-12-08T15:39:38;100161.41;;;5.26;100.00
27705;BME280;15109;50.992;6.918;2022-12-08T15:42:59;100165.63;;;5.21;100.00
27705;BME280;15109;50.992;6.918;2022-12-08T15:46:20;100148.19;;;5.23;100.00
27705;BME280;15109;50.992;6.918;2022-12-08T15:49:41;100167.13;;;5.15;100.00
27705;BME280;15109;50.992;6.918;2022-12-08T15:53:02;100161.56;;;5.17;100.00
27705;BME280;15109;50.992;6.918;2022-12-08T15:56:23;100158.16;;;5.15;100.00
27705;BME280;15109;50.992;6.918;2022-12-08T15:59:47;100160.50;;;5.10;100.00
27705;BME280;15109;50.992;6.918;2022-12-08T16:03:20;100167.97;;;5.08;100.00
27705;BME280;15109;50.992;6.918;2022-12-08T16:06:44;100164.19;;;5.00;100.00
27705;BME280;15109;50.992;6.918;2022-12-08T16:10:09;100163.88;;;4.95;100.00
27705;BME280;15109;50.992;6.918;2022-12-08T16:13:34;100168.63;;;5.01;100.00
27705;BME280;15109;50.992;6.918;2022-12-08T16:17:15;100164.91;;;5.02;100.00
27705;BME280;15109;50.992;6.918;2022-12-08T16:20:37;100158.47;;;4.95;100.00
27705;BME280;15109;50.992;6.918;2022-12-08T16:23:58;100156.59;;;4.96;100.00
27705;BME280;15109;50.992;6.918;2022-12-08T16:27:25;100156.53;;;4.88;100.00
27705;BME280;15109;50.992;6.918;2022-12-08T16:30:47;100148.91;;;4.83;100.00
27705;BME280;15109;50.992;6.918;2022-12-08T16:34:08;100153.50;;;4.83;100.00
27705;BME280;15109;50.992;6.918;2022-12-08T16:37:29;100146.88;;;4.77;100.00
27705;BME280;15109;50.992;6.918;2022-12-08T16:40:50;100148.69;;;4.69;100.00
27705;BME280;15109;50.992;6.918;2022-12-08T16:44:39;100151.88;;;4.56;100.00
27705;BME280;15109;50.992;6.918;2022-12-08T16:48:01;100155.22;;;4.50;100.00
27705;BME280;15109;50.992;6.918;2022-12-08T16:51:23;100171.66;;;4.56;100.00
27705;BME280;15109;50.992;6.918;2022-12-08T16:54:44;100163.91;;;4.62;100.00
27705;BME280;15109;50.992;6.918;2022-12-08T16:58:06;100159.88;;;4.66;100.00
27705;BME280;15109;50.992;6.918;2022-12-08T17:01:31;100161.38;;;4.68;100.00
27705;BME280;15109;50.992;6.918;2022-12-08T17:04:55;100153.13;;;4.70;100.00
27705;BME280;15109;50.992;6.918;2022-12-08T17:08:16;100150.41;;;4.70;100.00
27705;BME280;15109;50.992;6.918;2022-12-08T17:11:37;100155.84;;;4.78;100.00
27705;BME280;15109;50.992;6.918;2022-12-08T17:15:01;100155.84;;;4.78;100.00
27705;BME280;15109;50.992;6.918;2022-12-08T17:18:22;100156.53;;;4.80;100.00
27705;BME280;15109;50.992;6.918;2022-12-08T17:21:43;100147.53;;;4.79;100.00
27705;BME280;15109;50.992;6.918;2022-12-08T17:25:05;100146.53;;;4.80;100.00
27705;BME280;15109;50.992;6.918;2022-12-08T17:28:26;100155.66;;;4.79;100.00
27705;BME280;15109;50.992;6.918;2022-12-08T17:31:47;100150.25;;;4.79;100.00
27705;BME280;15109;50.992;6.918;2022-12-08T17:35:09;100149.72;;;4.76;100.00
27705;BME280;15109;50.992;6.918;2022-12-08T17:38:30;100147.16;;;4.66;100.00
27705;BME280;15109;50.992;6.918;2022-12-08T17:41:51;100144.63;;;4.65;100.00
27705;BME280;15109;50.992;6.918;2022-12-08T17:45:12;100161.91;;;4.72;100.00
27705;BME280;15109;50.992;6.918;2022-12-08T17:48:33;100150.53;;;4.60;100.00
27705;BME280;15109;50.992;6.918;2022-12-08T17:52:04;100152.06;;;4.63;100.00
27705;BME280;15109;50.992;6.918;2022-12-08T17:55:26;100160.66;;;4.58;100.00
27705;BME280;15109;50.992;6.918;2022-12-08T17:58:47;100145.94;;;4.52;100.00
27705;BME280;15109;50.992;6.918;2022-12-08T18:02:09;100141.66;;;4.50;100.00
27705;BME280;15109;50.992;6.918;2022-12-08T18:05:31;100142.84;;;4.47;100.00
27705;BME280;15109;50.992;6.918;2022-12-08T18:08:56;100150.09;;;4.39;100.00
27705;BME280;15109;50.992;6.918;2022-12-08T18:12:17;100153.94;;;4.36;100.00
27705;BME280;15109;50.992;6.918;2022-12-08T18:15:38;100146.31;;;4.32;100.00
27705;BME280;15109;50.992;6.918;2022-12-08T18:18:59;100149.50;;;4.27;100.00
27705;BME280;15109;50.992;6.918;2022-12-08T18:22:20;100151.91;;;4.30;100.00
27705;BME280;15109;50.992;6.918;2022-12-08T18:25:41;100151.56;;;4.33;100.00
27705;BME280;15109;50.992;6.918;2022-12-08T18:29:03;100154.38;;;4.24;100.00
27705;BME280;15109;50.992;6.918;2022-12-08T18:32:24;100156.94;;;4.25;100.00
27705;BME280;15109;50.992;6.918;2022-12-08T18:35:45;100156.09;;;4.25;100.00
27705;BME280;15109;50.992;6.918;2022-12-08T18:39:19;100162.34;;;4.25;100.00
27705;BME280;15109;50.992;6.918;2022-12-08T18:42:41;100160.81;;;4.23;100.00
27705;BME280;15109;50.992;6.918;2022-12-08T18:46:03;100147.97;;;4.25;100.00
27705;BME280;15109;50.992;6.918;2022-12-08T18:49:25;100155.56;;;4.21;100.00
27705;BME280;15109;50.992;6.918;2022-12-08T18:52:46;100154.22;;;4.25;100.00
27705;BME280;15109;50.992;6.918;2022-12-08T18:56:16;100142.72;;;4.23;100.00
27705;BME280;15109;50.992;6.918;2022-12-08T18:59:39;100149.81;;;4.24;100.00
27705;BME280;15109;50.992;6.918;2022-12-08T19:03:00;100145.59;;;4.22;100.00
27705;BME280;15109;50.992;6.918;2022-12-08T19:06:21;100142.38;;;4.18;100.00
27705;BME280;15109;50.992;6.918;2022-12-08T19:09:43;100151.31;;;4.19;100.00
27705;BME280;15109;50.992;6.918;2022-12-08T19:13:05;100156.03;;;4.17;100.00
27705;BME280;15109;50.992;6.918;2022-12-08T19:16:26;100159.94;;;4.14;100.00
27705;BME280;15109;50.992;6.918;2022-12-08T19:19:47;100164.78;;;4.10;100.00
27705;BME280;15109;50.992;6.918;2022-12-08T19:23:11;100160.56;;;4.08;100.00
27705;BME280;15109;50.992;6.918;2022-12-08T19:26:32;100145.31;;;4.07;100.00